RWZ3045 USSS-VTSP
Flight info
| Callsign | RWZ3045 |
|---|---|
| Flight time | N/A |
| Altitude | 35000 |
| Route | ASLIM6J ASLIM T414 USURA R482 LANOR M741 ARBIM/K0882F370 M741 AMDAR/N0484F370 DCT KHOLM DCT DOSHI DCT 35N069E DCT WOVIS DCT GIDOG DCT LAJAK DCT LAKRA DCT OLVIB DCT JHANG DCT PATNI DCT SULOM DCT ASARI DCT FD30 DCT ONOGI DCT KALOL/N0490F390 DCT 26N079E DCT IBUDA DCT BBS L759 SATVA SATVA1D |
| Aircraft | B772/H-SDE2E3FGHIJ5LORVWXY/LB1D1 |
Departure
| Time | 2026-05-03 22:12 |
|---|---|
| Airport | Koltsovo Airport (USSS) |
Arrival
| Time | N/A |
|---|---|
| Airport | Phuket International Airport (VTSP) |
| Time | Latitude | Longitude | Altitude | Speed | Heading |
|---|---|---|---|---|---|
| 2026-05-03 22:00 | 56.74782 | 60.79393 | 759 ft | 0 kts | 360° |
| 2026-05-03 22:08 | 56.74783 | 60.79393 | 759 ft | 0 kts | 360° |
| 2026-05-03 22:09 | 56.74850 | 60.79369 | 756 ft | 10 kts | 336° |
| 2026-05-03 22:09 | 56.74887 | 60.79274 | 754 ft | 10 kts | 281° |
| 2026-05-03 22:10 | 56.74787 | 60.79160 | 755 ft | 14 kts | 169° |
| 2026-05-03 22:10 | 56.74693 | 60.79188 | 755 ft | 14 kts | 179° |
| 2026-05-03 22:10 | 56.74597 | 60.79190 | 755 ft | 14 kts | 180° |
| 2026-05-03 22:10 | 56.74489 | 60.79161 | 753 ft | 21 kts | 198° |
| 2026-05-03 22:11 | 56.74344 | 60.79120 | 753 ft | 21 kts | 187° |
| 2026-05-03 22:11 | 56.74211 | 60.79115 | 753 ft | 12 kts | 156° |
| 2026-05-03 22:11 | 56.74184 | 60.79194 | 752 ft | 10 kts | 102° |
| 2026-05-03 22:11 | 56.74168 | 60.79556 | 754 ft | 56 kts | 95° |
| 2026-05-03 22:12 | 56.74122 | 60.80689 | 764 ft | 120 kts | 94° |
| 2026-05-03 22:12 | 56.74047 | 60.82526 | 812 ft | 169 kts | 94° |
| 2026-05-03 22:12 | 56.73984 | 60.84655 | 1468 ft | 166 kts | 92° |
| 2026-05-03 22:12 | 56.73976 | 60.86852 | 2049 ft | 177 kts | 93° |
| 2026-05-03 22:13 | 56.73971 | 60.89128 | 2614 ft | 186 kts | 93° |
| 2026-05-03 22:13 | 56.73956 | 60.91605 | 2758 ft | 204 kts | 93° |
| 2026-05-03 22:13 | 56.73936 | 60.94286 | 2859 ft | 223 kts | 93° |
| 2026-05-03 22:13 | 56.73909 | 60.97214 | 3034 ft | 240 kts | 93° |
| 2026-05-03 22:14 | 56.73864 | 61.00352 | 3305 ft | 252 kts | 98° |
| 2026-05-03 22:14 | 56.73178 | 61.03428 | 3645 ft | 256 kts | 134° |
| 2026-05-03 22:14 | 56.67966 | 61.03209 | 5418 ft | 256 kts | 221° |
| 2026-05-03 22:14 | 56.65931 | 61.00820 | 5965 ft | 263 kts | 201° |
| 2026-05-03 22:15 | 56.64145 | 61.00054 | 6527 ft | 265 kts | 184° |
| 2026-05-03 22:15 | 56.62317 | 61.00126 | 7072 ft | 266 kts | 177° |
| 2026-05-03 22:15 | 56.60460 | 61.00337 | 7571 ft | 269 kts | 178° |
| 2026-05-03 22:15 | 56.58582 | 61.00533 | 8101 ft | 270 kts | 178° |
| 2026-05-03 22:16 | 56.56697 | 61.00711 | 8622 ft | 272 kts | 179° |
| 2026-05-03 22:16 | 56.54807 | 61.00874 | 9134 ft | 274 kts | 179° |
| 2026-05-03 22:16 | 56.52908 | 61.01027 | 9651 ft | 276 kts | 180° |
| 2026-05-03 22:16 | 56.50981 | 61.01174 | 10121 ft | 278 kts | 180° |
| 2026-05-03 22:17 | 56.48998 | 61.01320 | 10339 ft | 292 kts | 180° |
| 2026-05-03 22:17 | 56.46909 | 61.01468 | 10469 ft | 310 kts | 180° |
| 2026-05-03 22:17 | 56.44688 | 61.01626 | 10616 ft | 328 kts | 180° |
| 2026-05-03 22:17 | 56.42336 | 61.01792 | 10764 ft | 348 kts | 180° |
| 2026-05-03 22:18 | 56.39914 | 61.01983 | 11112 ft | 356 kts | 177° |
| 2026-05-03 22:18 | 56.37475 | 61.03130 | 11433 ft | 372 kts | 156° |
| 2026-05-03 22:18 | 56.35319 | 61.05808 | 12068 ft | 378 kts | 142° |
| 2026-05-03 22:18 | 56.33302 | 61.08906 | 12794 ft | 383 kts | 142° |
| 2026-05-03 22:19 | 56.31261 | 61.12043 | 13620 ft | 387 kts | 142° |
| 2026-05-03 22:19 | 56.29195 | 61.15199 | 14390 ft | 391 kts | 142° |
| 2026-05-03 22:19 | 56.27131 | 61.18325 | 15109 ft | 395 kts | 143° |
| 2026-05-03 22:19 | 56.25007 | 61.21521 | 15819 ft | 400 kts | 143° |
| 2026-05-03 22:20 | 56.22857 | 61.24740 | 16554 ft | 404 kts | 143° |
| 2026-05-03 22:20 | 56.20680 | 61.27992 | 17304 ft | 408 kts | 143° |
| 2026-05-03 22:20 | 56.18509 | 61.31226 | 18016 ft | 413 kts | 143° |
| 2026-05-03 22:20 | 56.16281 | 61.34537 | 18685 ft | 417 kts | 143° |
| 2026-05-03 22:21 | 56.14030 | 61.37876 | 19346 ft | 421 kts | 143° |
| 2026-05-03 22:21 | 56.11757 | 61.41239 | 20006 ft | 424 kts | 143° |
| 2026-05-03 22:21 | 56.09461 | 61.44630 | 20658 ft | 429 kts | 144° |
| 2026-05-03 22:21 | 56.07179 | 61.47996 | 21282 ft | 432 kts | 144° |
| 2026-05-03 22:22 | 56.04844 | 61.51437 | 21916 ft | 436 kts | 144° |
| 2026-05-03 22:22 | 56.02485 | 61.54908 | 22528 ft | 440 kts | 144° |
| 2026-05-03 22:22 | 56.00112 | 61.58397 | 23081 ft | 444 kts | 144° |
| 2026-05-03 22:22 | 55.97715 | 61.61916 | 23625 ft | 448 kts | 144° |
| 2026-05-03 22:23 | 55.95318 | 61.65429 | 24079 ft | 451 kts | 144° |
| 2026-05-03 22:23 | 55.92878 | 61.68996 | 24536 ft | 453 kts | 145° |
| 2026-05-03 22:23 | 55.90282 | 61.72078 | 24781 ft | 447 kts | 160° |
| 2026-05-03 22:23 | 55.87319 | 61.73631 | 25100 ft | 442 kts | 178° |
| 2026-05-03 22:24 | 55.84276 | 61.73833 | 25467 ft | 437 kts | 183° |
| 2026-05-03 22:24 | 55.81248 | 61.73945 | 25835 ft | 441 kts | 182° |
| 2026-05-03 22:24 | 55.78172 | 61.74114 | 26271 ft | 443 kts | 182° |
| 2026-05-03 22:24 | 55.75075 | 61.74320 | 26709 ft | 445 kts | 182° |
| 2026-05-03 22:25 | 55.71970 | 61.74544 | 27121 ft | 447 kts | 182° |
| 2026-05-03 22:25 | 55.68887 | 61.74775 | 27482 ft | 449 kts | 182° |
| 2026-05-03 22:25 | 55.65746 | 61.75013 | 27804 ft | 452 kts | 182° |
| 2026-05-03 22:25 | 55.62588 | 61.75252 | 28127 ft | 455 kts | 182° |
| 2026-05-03 22:26 | 55.59414 | 61.75492 | 28447 ft | 457 kts | 183° |
| 2026-05-03 22:26 | 55.56235 | 61.75732 | 28761 ft | 459 kts | 183° |
| 2026-05-03 22:26 | 55.53028 | 61.75972 | 29034 ft | 461 kts | 183° |
| 2026-05-03 22:26 | 55.49810 | 61.76212 | 29282 ft | 463 kts | 183° |
| 2026-05-03 22:27 | 55.46582 | 61.76452 | 29532 ft | 465 kts | 184° |
| 2026-05-03 22:27 | 55.43369 | 61.76690 | 29782 ft | 467 kts | 184° |
| 2026-05-03 22:27 | 55.40110 | 61.76932 | 29995 ft | 468 kts | 184° |
| 2026-05-03 22:27 | 55.36852 | 61.77175 | 30262 ft | 468 kts | 184° |
| 2026-05-03 22:28 | 55.33599 | 61.77418 | 30523 ft | 468 kts | 184° |
| 2026-05-03 22:28 | 55.30378 | 61.77657 | 30755 ft | 468 kts | 184° |
| 2026-05-03 22:28 | 55.27111 | 61.77898 | 30963 ft | 469 kts | 184° |
| 2026-05-03 22:28 | 55.23854 | 61.78138 | 31186 ft | 469 kts | 184° |
| 2026-05-03 22:29 | 55.20587 | 61.78378 | 31419 ft | 469 kts | 184° |
| 2026-05-03 22:29 | 55.17318 | 61.78617 | 31644 ft | 469 kts | 184° |
| 2026-05-03 22:29 | 55.14054 | 61.78856 | 31841 ft | 470 kts | 184° |
| 2026-05-03 22:29 | 55.10827 | 61.79092 | 32051 ft | 470 kts | 184° |
| 2026-05-03 22:30 | 55.07551 | 61.79331 | 32284 ft | 470 kts | 184° |
| 2026-05-03 22:30 | 55.04279 | 61.79767 | 32484 ft | 475 kts | 178° |
| 2026-05-03 22:30 | 55.01010 | 61.80996 | 32661 ft | 484 kts | 170° |
| 2026-05-03 22:30 | 54.97837 | 61.82873 | 32877 ft | 489 kts | 164° |
| 2026-05-03 22:31 | 54.94748 | 61.85460 | 33096 ft | 495 kts | 158° |
| 2026-05-03 22:31 | 54.91716 | 61.88343 | 33306 ft | 496 kts | 157° |
| 2026-05-03 22:31 | 54.88689 | 61.91259 | 33494 ft | 497 kts | 157° |
| 2026-05-03 22:31 | 54.85660 | 61.94153 | 33719 ft | 497 kts | 158° |
| 2026-05-03 22:32 | 54.82621 | 61.97015 | 33948 ft | 496 kts | 158° |
| 2026-05-03 22:32 | 54.79576 | 61.99850 | 34154 ft | 496 kts | 158° |
| 2026-05-03 22:32 | 54.76559 | 62.02638 | 34322 ft | 496 kts | 158° |
| 2026-05-03 22:32 | 54.73510 | 62.05446 | 34506 ft | 496 kts | 158° |
| 2026-05-03 22:33 | 54.70452 | 62.08263 | 34687 ft | 496 kts | 158° |
| 2026-05-03 22:33 | 54.67432 | 62.11041 | 34873 ft | 496 kts | 158° |
| 2026-05-03 22:33 | 54.64373 | 62.13848 | 34949 ft | 498 kts | 158° |
| 2026-05-03 22:34 | 54.58238 | 62.19455 | 35032 ft | 498 kts | 159° |
| 2026-05-03 22:34 | 54.52123 | 62.25030 | 35036 ft | 495 kts | 159° |
| 2026-05-03 22:35 | 54.46066 | 62.30533 | 35037 ft | 494 kts | 159° |
| 2026-05-03 22:35 | 54.40076 | 62.36447 | 35044 ft | 497 kts | 156° |
| 2026-05-03 22:36 | 54.34184 | 62.42532 | 35053 ft | 498 kts | 156° |
| 2026-05-03 22:36 | 54.28227 | 62.48641 | 35038 ft | 498 kts | 156° |
| 2026-05-03 22:37 | 54.22295 | 62.54669 | 35051 ft | 499 kts | 156° |
| 2026-05-03 22:37 | 54.16315 | 62.60721 | 35039 ft | 499 kts | 156° |
| 2026-05-03 22:38 | 54.11344 | 62.65739 | 35048 ft | 499 kts | 157° |
| 2026-05-03 22:38 | 54.04381 | 62.72726 | 35054 ft | 499 kts | 157° |
| 2026-05-03 22:39 | 53.99383 | 62.77703 | 35045 ft | 500 kts | 157° |
| 2026-05-03 22:39 | 53.92387 | 62.84650 | 35054 ft | 500 kts | 157° |
| 2026-05-03 22:40 | 53.87374 | 62.89616 | 35059 ft | 501 kts | 157° |
| 2026-05-03 22:40 | 53.81347 | 62.95570 | 35061 ft | 502 kts | 158° |
| 2026-05-03 22:41 | 53.75298 | 63.01525 | 35064 ft | 503 kts | 158° |
| 2026-05-03 22:41 | 53.69243 | 63.07466 | 35071 ft | 503 kts | 158° |
| 2026-05-03 22:42 | 53.63217 | 63.13359 | 35072 ft | 504 kts | 158° |
| 2026-05-03 22:42 | 53.57137 | 63.19285 | 35081 ft | 504 kts | 158° |
| 2026-05-03 22:43 | 53.51047 | 63.25202 | 35077 ft | 505 kts | 158° |
| 2026-05-03 22:43 | 53.45001 | 63.31055 | 35088 ft | 504 kts | 158° |
| 2026-05-03 22:44 | 53.38924 | 63.36920 | 35085 ft | 504 kts | 158° |
| 2026-05-03 22:44 | 53.32849 | 63.42764 | 35101 ft | 503 kts | 158° |
| 2026-05-03 22:44 | 53.29809 | 63.45681 | 34990 ft | 503 kts | 158° |
| 2026-05-03 22:45 | 53.26760 | 63.48601 | 35026 ft | 506 kts | 158° |
| 2026-05-03 22:45 | 53.20574 | 63.54306 | 35098 ft | 506 kts | 163° |
| 2026-05-03 22:46 | 53.14063 | 63.58281 | 35103 ft | 497 kts | 174° |
| 2026-05-03 22:46 | 53.07307 | 63.60846 | 35101 ft | 499 kts | 175° |
| 2026-05-03 22:47 | 53.00559 | 63.63399 | 35094 ft | 500 kts | 175° |
| 2026-05-03 22:47 | 52.93831 | 63.66009 | 35085 ft | 492 kts | 175° |
| 2026-05-03 22:48 | 52.87130 | 63.68612 | 35099 ft | 493 kts | 175° |
| 2026-05-03 22:48 | 52.80467 | 63.71189 | 35095 ft | 495 kts | 175° |
| 2026-05-03 22:49 | 52.73734 | 63.73785 | 35101 ft | 496 kts | 175° |
| 2026-05-03 22:49 | 52.67034 | 63.76362 | 35101 ft | 498 kts | 175° |
| 2026-05-03 22:50 | 52.60268 | 63.78956 | 35101 ft | 499 kts | 175° |
| 2026-05-03 22:50 | 52.53505 | 63.81541 | 35098 ft | 499 kts | 175° |
| 2026-05-03 22:51 | 52.46711 | 63.84129 | 35104 ft | 500 kts | 175° |
| 2026-05-03 22:51 | 52.39919 | 63.86708 | 35103 ft | 501 kts | 175° |
| 2026-05-03 22:52 | 52.33151 | 63.89271 | 35104 ft | 502 kts | 174° |
| 2026-05-03 22:52 | 52.26333 | 63.91845 | 35102 ft | 502 kts | 174° |
| 2026-05-03 22:53 | 52.19516 | 63.94418 | 35101 ft | 503 kts | 174° |
| 2026-05-03 22:53 | 52.12717 | 63.96998 | 35101 ft | 504 kts | 174° |
| 2026-05-03 22:54 | 52.05873 | 63.99589 | 35105 ft | 505 kts | 174° |
| 2026-05-03 22:54 | 51.99008 | 64.02178 | 35102 ft | 505 kts | 174° |
| 2026-05-03 22:55 | 51.92184 | 64.04741 | 35106 ft | 506 kts | 174° |
| 2026-05-03 22:55 | 51.85332 | 64.07306 | 35105 ft | 507 kts | 174° |
| 2026-05-03 22:56 | 51.78450 | 64.09876 | 35105 ft | 508 kts | 174° |
| 2026-05-03 22:56 | 51.71538 | 64.12448 | 35112 ft | 508 kts | 174° |
| 2026-05-03 22:57 | 51.64674 | 64.14995 | 35113 ft | 509 kts | 174° |
| 2026-05-03 22:57 | 51.57751 | 64.17557 | 35117 ft | 510 kts | 174° |
| 2026-05-03 22:58 | 51.50808 | 64.20118 | 35115 ft | 511 kts | 174° |
| 2026-05-03 22:58 | 51.43914 | 64.22654 | 35118 ft | 511 kts | 174° |
| 2026-05-03 22:59 | 51.36984 | 64.25199 | 35122 ft | 511 kts | 174° |
| 2026-05-03 22:59 | 51.30056 | 64.27735 | 35117 ft | 511 kts | 174° |
| 2026-05-03 23:00 | 51.23153 | 64.30254 | 35117 ft | 511 kts | 174° |
| 2026-05-03 23:00 | 51.16200 | 64.32783 | 35120 ft | 511 kts | 174° |
| 2026-05-03 23:01 | 51.09249 | 64.35304 | 35123 ft | 511 kts | 174° |
| 2026-05-03 23:01 | 51.02339 | 64.37802 | 35120 ft | 511 kts | 173° |
| 2026-05-03 23:02 | 50.95388 | 64.40308 | 35128 ft | 511 kts | 173° |
| 2026-05-03 23:02 | 50.88491 | 64.42786 | 35147 ft | 511 kts | 173° |
| 2026-05-03 23:03 | 50.81537 | 64.45278 | 35144 ft | 511 kts | 173° |
| 2026-05-03 23:03 | 50.74586 | 64.47755 | 35142 ft | 511 kts | 173° |
| 2026-05-03 23:04 | 50.67686 | 64.50196 | 35147 ft | 510 kts | 173° |
| 2026-05-03 23:04 | 50.60739 | 64.52648 | 35151 ft | 510 kts | 173° |
| 2026-05-03 23:05 | 50.53843 | 64.55076 | 35153 ft | 510 kts | 173° |
| 2026-05-03 23:05 | 50.46908 | 64.57511 | 35150 ft | 510 kts | 173° |
| 2026-05-03 23:06 | 50.39964 | 64.59943 | 35149 ft | 510 kts | 173° |
| 2026-05-03 23:06 | 50.33067 | 64.62350 | 35152 ft | 510 kts | 173° |
| 2026-05-03 23:07 | 50.26118 | 64.64769 | 35156 ft | 510 kts | 173° |
| 2026-05-03 23:07 | 50.19191 | 64.67173 | 35154 ft | 509 kts | 173° |
| 2026-05-03 23:08 | 50.12295 | 64.69560 | 35156 ft | 509 kts | 173° |
| 2026-05-03 23:08 | 50.05373 | 64.71949 | 35156 ft | 508 kts | 173° |
| 2026-05-03 23:09 | 49.98505 | 64.74315 | 35165 ft | 508 kts | 173° |
| 2026-05-03 23:09 | 49.91593 | 64.76690 | 35160 ft | 507 kts | 172° |
| 2026-05-03 23:10 | 49.84692 | 64.79059 | 35161 ft | 507 kts | 172° |
| 2026-05-03 23:10 | 49.77835 | 64.81413 | 35165 ft | 507 kts | 172° |
| 2026-05-03 23:11 | 49.70939 | 64.83774 | 35166 ft | 507 kts | 172° |
| 2026-05-03 23:11 | 49.64046 | 64.86127 | 35166 ft | 507 kts | 172° |
| 2026-05-03 23:12 | 49.57198 | 64.88456 | 35170 ft | 506 kts | 172° |
| 2026-05-03 23:12 | 49.50303 | 64.90796 | 35173 ft | 506 kts | 172° |
| 2026-05-03 23:13 | 49.43418 | 64.93125 | 35176 ft | 506 kts | 172° |
| 2026-05-03 23:13 | 49.36559 | 64.95440 | 35176 ft | 506 kts | 172° |
| 2026-05-03 23:14 | 49.29681 | 64.97837 | 35180 ft | 507 kts | 171° |
| 2026-05-03 23:14 | 49.22823 | 65.00378 | 35177 ft | 507 kts | 171° |
| 2026-05-03 23:15 | 49.15992 | 65.02899 | 35178 ft | 507 kts | 171° |
| 2026-05-03 23:15 | 49.09119 | 65.05401 | 35182 ft | 507 kts | 171° |
| 2026-05-03 23:16 | 49.02243 | 65.07892 | 35184 ft | 506 kts | 171° |
| 2026-05-03 23:16 | 48.95426 | 65.10357 | 35188 ft | 506 kts | 171° |
| 2026-05-03 23:17 | 48.88556 | 65.12835 | 35184 ft | 506 kts | 171° |
| 2026-05-03 23:17 | 48.81743 | 65.15289 | 35186 ft | 506 kts | 171° |
| 2026-05-03 23:18 | 48.74873 | 65.17758 | 35195 ft | 506 kts | 171° |
| 2026-05-03 23:18 | 48.68005 | 65.20219 | 35196 ft | 506 kts | 170° |
| 2026-05-03 23:19 | 48.61184 | 65.22656 | 35197 ft | 506 kts | 170° |
| 2026-05-03 23:19 | 48.54305 | 65.25108 | 35189 ft | 506 kts | 170° |
| 2026-05-03 23:20 | 48.47481 | 65.27533 | 35193 ft | 506 kts | 170° |
| 2026-05-03 23:20 | 48.40622 | 65.29963 | 35193 ft | 506 kts | 170° |
| 2026-05-03 23:21 | 48.33805 | 65.32367 | 35192 ft | 506 kts | 170° |
| 2026-05-03 23:21 | 48.26934 | 65.34783 | 35191 ft | 506 kts | 170° |
| 2026-05-03 23:22 | 48.16672 | 65.38381 | 35191 ft | 506 kts | 170° |
| 2026-05-03 23:22 | 48.09852 | 65.40765 | 35191 ft | 506 kts | 170° |
| 2026-05-03 23:23 | 48.02974 | 65.43151 | 35186 ft | 506 kts | 170° |
| 2026-05-03 23:23 | 47.96147 | 65.45511 | 35187 ft | 506 kts | 170° |
| 2026-05-03 23:24 | 47.89280 | 65.47879 | 35186 ft | 506 kts | 170° |
| 2026-05-03 23:24 | 47.82396 | 65.50248 | 35185 ft | 507 kts | 170° |
| 2026-05-03 23:25 | 47.75558 | 65.52596 | 35183 ft | 507 kts | 170° |
| 2026-05-03 23:25 | 47.68682 | 65.54950 | 35187 ft | 507 kts | 170° |
| 2026-05-03 23:26 | 47.61808 | 65.57297 | 35185 ft | 507 kts | 170° |
| 2026-05-03 23:26 | 47.54970 | 65.59625 | 35186 ft | 507 kts | 170° |
| 2026-05-03 23:27 | 47.48079 | 65.61965 | 35187 ft | 507 kts | 169° |
| 2026-05-03 23:27 | 47.41195 | 65.64296 | 35186 ft | 507 kts | 169° |
| 2026-05-03 23:28 | 47.34344 | 65.66610 | 35185 ft | 507 kts | 169° |
| 2026-05-03 23:28 | 47.27500 | 65.68916 | 35184 ft | 507 kts | 169° |
| 2026-05-03 23:29 | 47.20613 | 65.71229 | 35186 ft | 507 kts | 169° |
| 2026-05-03 23:29 | 47.13725 | 65.73538 | 35182 ft | 507 kts | 169° |
| 2026-05-03 23:30 | 47.06869 | 65.75829 | 35181 ft | 507 kts | 169° |
| 2026-05-03 23:30 | 47.00010 | 65.78115 | 35181 ft | 507 kts | 169° |
| 2026-05-03 23:31 | 46.93110 | 65.80409 | 35178 ft | 507 kts | 169° |
| 2026-05-03 23:31 | 46.86221 | 65.82693 | 35174 ft | 508 kts | 169° |
| 2026-05-03 23:32 | 46.79362 | 65.84963 | 35174 ft | 508 kts | 169° |
| 2026-05-03 23:32 | 46.72439 | 65.87157 | 35173 ft | 507 kts | 172° |
| 2026-05-03 23:33 | 46.65513 | 65.88816 | 35169 ft | 507 kts | 173° |
| 2026-05-03 23:33 | 46.58536 | 65.90424 | 35159 ft | 508 kts | 173° |
| 2026-05-03 23:34 | 46.51547 | 65.92061 | 35162 ft | 508 kts | 173° |
| 2026-05-03 23:34 | 46.44599 | 65.93707 | 35162 ft | 509 kts | 172° |
| 2026-05-03 23:35 | 46.37590 | 65.95366 | 35158 ft | 509 kts | 172° |
| 2026-05-03 23:35 | 46.30622 | 65.97009 | 35159 ft | 509 kts | 172° |
| 2026-05-03 23:36 | 46.23615 | 65.98655 | 35153 ft | 510 kts | 172° |
| 2026-05-03 23:36 | 46.16637 | 66.00291 | 35152 ft | 510 kts | 172° |
| 2026-05-03 23:37 | 46.10805 | 66.01655 | 35145 ft | 510 kts | 172° |
| 2026-05-03 23:37 | 46.02651 | 66.03557 | 35142 ft | 510 kts | 172° |
| 2026-05-03 23:38 | 45.96813 | 66.04919 | 35146 ft | 510 kts | 172° |
| 2026-05-03 23:38 | 45.88659 | 66.06821 | 35142 ft | 510 kts | 172° |
| 2026-05-03 23:39 | 45.82816 | 66.08182 | 35136 ft | 511 kts | 172° |
| 2026-05-03 23:39 | 45.75787 | 66.09814 | 35133 ft | 511 kts | 172° |
| 2026-05-03 23:40 | 45.68773 | 66.11438 | 35130 ft | 512 kts | 172° |
| 2026-05-03 23:40 | 45.61723 | 66.13067 | 35127 ft | 512 kts | 172° |
| 2026-05-03 23:41 | 45.54678 | 66.14690 | 35124 ft | 512 kts | 172° |
| 2026-05-03 23:41 | 45.47641 | 66.16307 | 35124 ft | 512 kts | 172° |
| 2026-05-03 23:42 | 45.40653 | 66.17909 | 35122 ft | 512 kts | 172° |
| 2026-05-03 23:42 | 45.33626 | 66.19516 | 35114 ft | 512 kts | 172° |
| 2026-05-03 23:43 | 45.26586 | 66.21122 | 35116 ft | 512 kts | 172° |
| 2026-05-03 23:43 | 45.19547 | 66.22723 | 35109 ft | 512 kts | 172° |
| 2026-05-03 23:44 | 45.12504 | 66.24322 | 35108 ft | 512 kts | 172° |
| 2026-05-03 23:44 | 45.05464 | 66.25915 | 35106 ft | 512 kts | 172° |
| 2026-05-03 23:45 | 44.98450 | 66.27499 | 35101 ft | 512 kts | 172° |
| 2026-05-03 23:45 | 44.91426 | 66.29082 | 35098 ft | 513 kts | 172° |
| 2026-05-03 23:46 | 44.84365 | 66.30668 | 35096 ft | 513 kts | 172° |
| 2026-05-03 23:46 | 44.77312 | 66.32249 | 35091 ft | 513 kts | 171° |
| 2026-05-03 23:47 | 44.70261 | 66.33825 | 35089 ft | 513 kts | 171° |
| 2026-05-03 23:47 | 44.63214 | 66.35397 | 35083 ft | 513 kts | 171° |
| 2026-05-03 23:48 | 44.56156 | 66.36968 | 35076 ft | 513 kts | 171° |
| 2026-05-03 23:48 | 44.49098 | 66.38535 | 35072 ft | 513 kts | 171° |
| 2026-05-03 23:49 | 44.42081 | 66.40088 | 35074 ft | 513 kts | 171° |
| 2026-05-03 23:49 | 44.35026 | 66.41647 | 35068 ft | 513 kts | 171° |
| 2026-05-03 23:50 | 44.27973 | 66.43220 | 35068 ft | 513 kts | 170° |
| 2026-05-03 23:50 | 44.20967 | 66.45099 | 35069 ft | 513 kts | 168° |
| 2026-05-03 23:51 | 44.13972 | 66.47099 | 35065 ft | 513 kts | 168° |
| 2026-05-03 23:51 | 44.06973 | 66.49055 | 35063 ft | 513 kts | 169° |
| 2026-05-03 23:52 | 43.99962 | 66.50971 | 35062 ft | 513 kts | 169° |
| 2026-05-03 23:52 | 43.92948 | 66.52873 | 35065 ft | 513 kts | 169° |
| 2026-05-03 23:53 | 43.85969 | 66.54763 | 35068 ft | 514 kts | 169° |
| 2026-05-03 23:53 | 43.78950 | 66.56663 | 35067 ft | 514 kts | 169° |
| 2026-05-03 23:54 | 43.71903 | 66.58566 | 35067 ft | 515 kts | 169° |
| 2026-05-03 23:54 | 43.64862 | 66.60463 | 35061 ft | 515 kts | 169° |
| 2026-05-03 23:55 | 43.57857 | 66.62345 | 35065 ft | 514 kts | 168° |
| 2026-05-03 23:55 | 43.50834 | 66.64228 | 35066 ft | 514 kts | 168° |
| 2026-05-03 23:56 | 43.43843 | 66.66098 | 35065 ft | 513 kts | 168° |
| 2026-05-03 23:56 | 43.36832 | 66.67969 | 35067 ft | 513 kts | 168° |
| 2026-05-03 23:57 | 43.29793 | 66.69844 | 35064 ft | 513 kts | 168° |
| 2026-05-03 23:57 | 43.22808 | 66.71697 | 35069 ft | 513 kts | 168° |
| 2026-05-03 23:58 | 43.15829 | 66.73535 | 35067 ft | 512 kts | 168° |
| 2026-05-03 23:58 | 43.08833 | 66.75375 | 35067 ft | 513 kts | 168° |
| 2026-05-03 23:59 | 43.01819 | 66.77217 | 35068 ft | 513 kts | 168° |
| 2026-05-03 23:59 | 42.94851 | 66.79196 | 35069 ft | 513 kts | 166° |
| 2026-05-04 00:00 | 42.87914 | 66.81560 | 35072 ft | 512 kts | 165° |
| 2026-05-04 00:00 | 42.81002 | 66.83940 | 35070 ft | 513 kts | 165° |
| 2026-05-04 00:01 | 42.74097 | 66.86248 | 35071 ft | 513 kts | 166° |
| 2026-05-04 00:01 | 42.67175 | 66.88523 | 35072 ft | 513 kts | 166° |
| 2026-05-04 00:02 | 42.60217 | 66.90802 | 35074 ft | 513 kts | 166° |
| 2026-05-04 00:02 | 42.53283 | 66.93073 | 35072 ft | 513 kts | 166° |
| 2026-05-04 00:03 | 42.46368 | 66.95334 | 35072 ft | 513 kts | 166° |
| 2026-05-04 00:03 | 42.39437 | 66.97596 | 35070 ft | 512 kts | 166° |
| 2026-05-04 00:04 | 42.32528 | 66.99844 | 35073 ft | 512 kts | 166° |
| 2026-05-04 00:04 | 42.25576 | 67.02103 | 35072 ft | 512 kts | 166° |
| 2026-05-04 00:05 | 42.18674 | 67.04339 | 35070 ft | 512 kts | 166° |
| 2026-05-04 00:05 | 42.11753 | 67.06578 | 35071 ft | 511 kts | 166° |
| 2026-05-04 00:06 | 42.04863 | 67.08799 | 35071 ft | 511 kts | 166° |
| 2026-05-04 00:06 | 41.97960 | 67.11013 | 35070 ft | 511 kts | 166° |
| 2026-05-04 00:07 | 41.91027 | 67.13234 | 35073 ft | 510 kts | 166° |
| 2026-05-04 00:07 | 41.84139 | 67.15437 | 35067 ft | 510 kts | 166° |
| 2026-05-04 00:08 | 41.77266 | 67.17631 | 35068 ft | 509 kts | 166° |
| 2026-05-04 00:08 | 41.70341 | 67.19836 | 35068 ft | 509 kts | 166° |
| 2026-05-04 00:09 | 41.63402 | 67.21560 | 35071 ft | 509 kts | 171° |
| 2026-05-04 00:09 | 41.56403 | 67.23045 | 35067 ft | 509 kts | 171° |
| 2026-05-04 00:10 | 41.49415 | 67.24545 | 35070 ft | 509 kts | 171° |
| 2026-05-04 00:10 | 41.42449 | 67.26067 | 35064 ft | 509 kts | 171° |
| 2026-05-04 00:11 | 41.35440 | 67.27602 | 35065 ft | 509 kts | 171° |
| 2026-05-04 00:11 | 41.28480 | 67.29121 | 35065 ft | 509 kts | 171° |
| 2026-05-04 00:12 | 41.21472 | 67.30646 | 35070 ft | 509 kts | 171° |
| 2026-05-04 00:12 | 41.14496 | 67.32160 | 35064 ft | 509 kts | 171° |
| 2026-05-04 00:13 | 41.07466 | 67.33163 | 35065 ft | 508 kts | 180° |
| 2026-05-04 00:13 | 41.00408 | 67.32784 | 35067 ft | 507 kts | 184° |
| 2026-05-04 00:14 | 40.93395 | 67.32312 | 35061 ft | 508 kts | 184° |
| 2026-05-04 00:14 | 40.86333 | 67.31894 | 35063 ft | 508 kts | 183° |
| 2026-05-04 00:15 | 40.79265 | 67.31506 | 35063 ft | 508 kts | 183° |
| 2026-05-04 00:15 | 40.72195 | 67.31121 | 35060 ft | 508 kts | 183° |
| 2026-05-04 00:16 | 40.65128 | 67.30734 | 35060 ft | 508 kts | 183° |
| 2026-05-04 00:16 | 40.58055 | 67.30346 | 35060 ft | 509 kts | 183° |
| 2026-05-04 00:17 | 40.50980 | 67.29958 | 35067 ft | 509 kts | 184° |
| 2026-05-04 00:17 | 40.43909 | 67.29571 | 35065 ft | 509 kts | 184° |
| 2026-05-04 00:18 | 40.36818 | 67.29185 | 35067 ft | 510 kts | 183° |
| 2026-05-04 00:18 | 40.29725 | 67.28937 | 35073 ft | 510 kts | 182° |
| 2026-05-04 00:19 | 40.22615 | 67.28779 | 35066 ft | 511 kts | 182° |
| 2026-05-04 00:19 | 40.15542 | 67.28606 | 35069 ft | 511 kts | 182° |
| 2026-05-04 00:20 | 40.08395 | 67.28411 | 35067 ft | 511 kts | 182° |
| 2026-05-04 00:20 | 40.01293 | 67.28214 | 35067 ft | 511 kts | 182° |
| 2026-05-04 00:21 | 39.94201 | 67.28018 | 35077 ft | 512 kts | 182° |
| 2026-05-04 00:21 | 39.87106 | 67.27824 | 35064 ft | 512 kts | 182° |
| 2026-05-04 00:22 | 39.79969 | 67.27630 | 35075 ft | 512 kts | 182° |
| 2026-05-04 00:22 | 39.72815 | 67.27325 | 35062 ft | 512 kts | 186° |
| 2026-05-04 00:23 | 39.65742 | 67.26610 | 35077 ft | 512 kts | 186° |
| 2026-05-04 00:23 | 39.58621 | 67.25860 | 35062 ft | 513 kts | 186° |
| 2026-05-04 00:24 | 39.51497 | 67.25153 | 35076 ft | 513 kts | 186° |
| 2026-05-04 00:24 | 39.44415 | 67.24508 | 35073 ft | 514 kts | 183° |
| 2026-05-04 00:25 | 39.37259 | 67.25036 | 35070 ft | 517 kts | 173° |
| 2026-05-04 00:25 | 39.30128 | 67.26306 | 35059 ft | 517 kts | 174° |
| 2026-05-04 00:26 | 39.22984 | 67.27437 | 35073 ft | 517 kts | 176° |
| 2026-05-04 00:26 | 39.15814 | 67.27599 | 35086 ft | 515 kts | 183° |
| 2026-05-04 00:27 | 39.08640 | 67.27460 | 35078 ft | 515 kts | 181° |
| 2026-05-04 00:27 | 39.01461 | 67.27576 | 35093 ft | 516 kts | 181° |
| 2026-05-04 00:28 | 38.94325 | 67.27723 | 35093 ft | 517 kts | 181° |
| 2026-05-04 00:28 | 38.87129 | 67.27834 | 35096 ft | 517 kts | 181° |
| 2026-05-04 00:29 | 38.79931 | 67.27922 | 35089 ft | 517 kts | 181° |
| 2026-05-04 00:29 | 38.72733 | 67.28007 | 35109 ft | 517 kts | 181° |
| 2026-05-04 00:30 | 38.66747 | 67.28080 | 35110 ft | 517 kts | 181° |
| 2026-05-04 00:30 | 38.59545 | 67.28170 | 35114 ft | 518 kts | 181° |
| 2026-05-04 00:31 | 38.52342 | 67.28259 | 35109 ft | 517 kts | 181° |
| 2026-05-04 00:31 | 38.45135 | 67.28349 | 35109 ft | 518 kts | 181° |
| 2026-05-04 00:32 | 38.37924 | 67.28437 | 35108 ft | 518 kts | 181° |
| 2026-05-04 00:32 | 38.30708 | 67.28525 | 35095 ft | 518 kts | 181° |
| 2026-05-04 00:33 | 38.19881 | 67.28659 | 35085 ft | 518 kts | 182° |
| 2026-05-04 00:34 | 38.12671 | 67.28815 | 35083 ft | 519 kts | 180° |
| 2026-05-04 00:34 | 38.05437 | 67.29266 | 35072 ft | 520 kts | 179° |
| 2026-05-04 00:35 | 37.98246 | 67.29760 | 35076 ft | 520 kts | 179° |
| 2026-05-04 00:35 | 37.91006 | 67.30212 | 35066 ft | 521 kts | 180° |
| 2026-05-04 00:36 | 37.83762 | 67.30637 | 35053 ft | 521 kts | 179° |
| 2026-05-04 00:36 | 37.76527 | 67.31057 | 35051 ft | 521 kts | 179° |
| 2026-05-04 00:37 | 37.69287 | 67.31479 | 35054 ft | 520 kts | 179° |
| 2026-05-04 00:37 | 37.62048 | 67.31903 | 35050 ft | 520 kts | 179° |
| 2026-05-04 00:38 | 37.54812 | 67.32325 | 35050 ft | 521 kts | 179° |
| 2026-05-04 00:38 | 37.47614 | 67.32745 | 35048 ft | 521 kts | 180° |
| 2026-05-04 00:39 | 37.40365 | 67.33166 | 35051 ft | 521 kts | 180° |
| 2026-05-04 00:39 | 37.33115 | 67.33587 | 35052 ft | 521 kts | 179° |
| 2026-05-04 00:40 | 37.25861 | 67.34048 | 35054 ft | 522 kts | 176° |
| 2026-05-04 00:40 | 37.18820 | 67.36068 | 35062 ft | 525 kts | 161° |
| 2026-05-04 00:41 | 37.12240 | 67.40037 | 35060 ft | 525 kts | 150° |
| 2026-05-04 00:41 | 37.05887 | 67.44597 | 35048 ft | 526 kts | 150° |
| 2026-05-04 00:42 | 36.99512 | 67.49104 | 35045 ft | 526 kts | 151° |
| 2026-05-04 00:42 | 36.93120 | 67.53536 | 35059 ft | 526 kts | 151° |
| 2026-05-04 00:43 | 36.86716 | 67.57952 | 35061 ft | 525 kts | 151° |
| 2026-05-04 00:43 | 36.80321 | 67.62362 | 35066 ft | 524 kts | 151° |
| 2026-05-04 00:44 | 36.73944 | 67.66755 | 35059 ft | 523 kts | 151° |
| 2026-05-04 00:44 | 36.67573 | 67.71139 | 35078 ft | 522 kts | 151° |
| 2026-05-04 00:45 | 36.61271 | 67.75481 | 35063 ft | 521 kts | 151° |
| 2026-05-04 00:45 | 36.54932 | 67.79845 | 35092 ft | 520 kts | 151° |
| 2026-05-04 00:46 | 36.48610 | 67.84187 | 35093 ft | 519 kts | 151° |
| 2026-05-04 00:46 | 36.42287 | 67.88521 | 35097 ft | 518 kts | 151° |
| 2026-05-04 00:47 | 36.35978 | 67.92838 | 35107 ft | 517 kts | 151° |
| 2026-05-04 00:47 | 36.29665 | 67.97148 | 35110 ft | 517 kts | 151° |
| 2026-05-04 00:48 | 36.23346 | 68.01454 | 35116 ft | 517 kts | 152° |
| 2026-05-04 00:48 | 36.17047 | 68.05740 | 35124 ft | 517 kts | 152° |
| 2026-05-04 00:49 | 36.10734 | 68.10027 | 35128 ft | 517 kts | 152° |
| 2026-05-04 00:49 | 36.04462 | 68.14279 | 35130 ft | 517 kts | 152° |
| 2026-05-04 00:50 | 35.98137 | 68.18558 | 35138 ft | 517 kts | 152° |
| 2026-05-04 00:50 | 35.91845 | 68.22807 | 35143 ft | 517 kts | 152° |
| 2026-05-04 00:51 | 35.85512 | 68.27076 | 35146 ft | 517 kts | 152° |
| 2026-05-04 00:51 | 35.79219 | 68.31311 | 35140 ft | 517 kts | 152° |
| 2026-05-04 00:52 | 35.72913 | 68.35547 | 35144 ft | 515 kts | 152° |
| 2026-05-04 00:52 | 35.66609 | 68.39776 | 35155 ft | 516 kts | 152° |
| 2026-05-04 00:53 | 35.60330 | 68.44047 | 35157 ft | 516 kts | 149° |
| 2026-05-04 00:53 | 35.54534 | 68.49163 | 35169 ft | 516 kts | 142° |
| 2026-05-04 00:54 | 35.48857 | 68.54583 | 35176 ft | 516 kts | 142° |
| 2026-05-04 00:54 | 35.43162 | 68.59963 | 35168 ft | 517 kts | 143° |
| 2026-05-04 00:55 | 35.37452 | 68.65296 | 35168 ft | 516 kts | 143° |
| 2026-05-04 00:55 | 35.31732 | 68.70616 | 35157 ft | 515 kts | 143° |
| 2026-05-04 00:56 | 35.26064 | 68.75883 | 35145 ft | 515 kts | 143° |
| 2026-05-04 00:56 | 35.20336 | 68.81199 | 35125 ft | 514 kts | 143° |
| 2026-05-04 00:57 | 35.14654 | 68.86464 | 35108 ft | 513 kts | 143° |
| 2026-05-04 00:57 | 35.08957 | 68.91735 | 35077 ft | 513 kts | 143° |
| 2026-05-04 00:58 | 35.03235 | 68.96874 | 35053 ft | 510 kts | 150° |
| 2026-05-04 00:58 | 34.96713 | 69.00091 | 35051 ft | 506 kts | 169° |
| 2026-05-04 00:59 | 34.89798 | 69.01014 | 35034 ft | 502 kts | 179° |
| 2026-05-04 00:59 | 34.82787 | 69.01458 | 35027 ft | 504 kts | 179° |
| 2026-05-04 01:00 | 34.75801 | 69.01980 | 35001 ft | 506 kts | 179° |
| 2026-05-04 01:00 | 34.68751 | 69.02562 | 34994 ft | 508 kts | 179° |
| 2026-05-04 01:01 | 34.61709 | 69.03148 | 35002 ft | 509 kts | 179° |
| 2026-05-04 01:01 | 34.54625 | 69.03730 | 34996 ft | 509 kts | 179° |
| 2026-05-04 01:02 | 34.47595 | 69.04434 | 34984 ft | 509 kts | 171° |
| 2026-05-04 01:02 | 34.44230 | 69.05842 | 35005 ft | 514 kts | 153° |
| 2026-05-04 01:02 | 34.41295 | 69.08378 | 34992 ft | 518 kts | 136° |
| 2026-05-04 01:02 | 34.39003 | 69.11669 | 35000 ft | 519 kts | 123° |
| 2026-05-04 01:03 | 34.37384 | 69.15559 | 34983 ft | 516 kts | 107° |
| 2026-05-04 01:03 | 34.35394 | 69.23907 | 34990 ft | 517 kts | 104° |
| 2026-05-04 01:04 | 34.33421 | 69.32310 | 34987 ft | 519 kts | 105° |
| 2026-05-04 01:04 | 34.31353 | 69.40673 | 34985 ft | 520 kts | 106° |
| 2026-05-04 01:05 | 34.29229 | 69.49049 | 34980 ft | 519 kts | 107° |
| 2026-05-04 01:05 | 34.27123 | 69.57327 | 34971 ft | 516 kts | 107° |
| 2026-05-04 01:06 | 34.25025 | 69.65578 | 34964 ft | 513 kts | 107° |
| 2026-05-04 01:06 | 34.22923 | 69.73827 | 34954 ft | 511 kts | 107° |
| 2026-05-04 01:07 | 34.20825 | 69.82034 | 34946 ft | 510 kts | 107° |
| 2026-05-04 01:07 | 34.18737 | 69.90177 | 34933 ft | 509 kts | 108° |
| 2026-05-04 01:08 | 34.16200 | 69.98096 | 34921 ft | 506 kts | 118° |
| 2026-05-04 01:08 | 34.12883 | 70.05587 | 34918 ft | 504 kts | 120° |
| 2026-05-04 01:09 | 34.09567 | 70.13014 | 34912 ft | 504 kts | 120° |
| 2026-05-04 01:09 | 34.06285 | 70.20475 | 34909 ft | 504 kts | 120° |
| 2026-05-04 01:10 | 34.03006 | 70.27963 | 34903 ft | 503 kts | 120° |
| 2026-05-04 01:10 | 33.99740 | 70.35400 | 34897 ft | 502 kts | 120° |
| 2026-05-04 01:11 | 33.96479 | 70.42792 | 34895 ft | 497 kts | 122° |
| 2026-05-04 01:11 | 33.94475 | 70.46149 | 34888 ft | 489 kts | 138° |
| 2026-05-04 01:11 | 33.91799 | 70.48630 | 34908 ft | 482 kts | 154° |
| 2026-05-04 01:11 | 33.88776 | 70.50245 | 34893 ft | 477 kts | 166° |
| 2026-05-04 01:12 | 33.85571 | 70.50967 | 34882 ft | 468 kts | 179° |
| 2026-05-04 01:12 | 33.79058 | 70.51456 | 34903 ft | 471 kts | 179° |
| 2026-05-04 01:13 | 33.72475 | 70.52018 | 34890 ft | 474 kts | 178° |
| 2026-05-04 01:13 | 33.65912 | 70.52638 | 34887 ft | 476 kts | 178° |
| 2026-05-04 01:14 | 33.59311 | 70.53281 | 34876 ft | 477 kts | 178° |
| 2026-05-04 01:14 | 33.52683 | 70.53926 | 34864 ft | 475 kts | 178° |
| 2026-05-04 01:15 | 33.46113 | 70.54561 | 34854 ft | 474 kts | 178° |
| 2026-05-04 01:15 | 33.39561 | 70.55192 | 34851 ft | 474 kts | 178° |
| 2026-05-04 01:16 | 33.32982 | 70.55824 | 34845 ft | 474 kts | 178° |
| 2026-05-04 01:16 | 33.26422 | 70.56454 | 34848 ft | 474 kts | 178° |
| 2026-05-04 01:17 | 33.19817 | 70.57087 | 34834 ft | 475 kts | 178° |
| 2026-05-04 01:17 | 33.13228 | 70.57717 | 34837 ft | 476 kts | 178° |
| 2026-05-04 01:18 | 33.06630 | 70.58348 | 34825 ft | 477 kts | 178° |
| 2026-05-04 01:18 | 32.99997 | 70.59057 | 34814 ft | 477 kts | 172° |
| 2026-05-04 01:18 | 32.96834 | 70.60320 | 34817 ft | 485 kts | 154° |
| 2026-05-04 01:19 | 32.94107 | 70.62609 | 34837 ft | 492 kts | 139° |
| 2026-05-04 01:19 | 32.91846 | 70.65701 | 34814 ft | 498 kts | 126° |
| 2026-05-04 01:19 | 32.90282 | 70.69409 | 34811 ft | 501 kts | 112° |
| 2026-05-04 01:20 | 32.88014 | 70.77280 | 34810 ft | 504 kts | 111° |
| 2026-05-04 01:20 | 32.85765 | 70.85146 | 34811 ft | 505 kts | 112° |
| 2026-05-04 01:21 | 32.83432 | 70.92994 | 34804 ft | 504 kts | 112° |
| 2026-05-04 01:21 | 32.81046 | 71.00845 | 34801 ft | 502 kts | 112° |
| 2026-05-04 01:22 | 32.78683 | 71.08580 | 34799 ft | 500 kts | 113° |
| 2026-05-04 01:22 | 32.76310 | 71.16339 | 34791 ft | 498 kts | 113° |
| 2026-05-04 01:23 | 32.73943 | 71.24068 | 34797 ft | 497 kts | 112° |
| 2026-05-04 01:23 | 32.71584 | 71.31756 | 34794 ft | 497 kts | 112° |
| 2026-05-04 01:24 | 32.69220 | 71.39439 | 34784 ft | 497 kts | 112° |
| 2026-05-04 01:24 | 32.66845 | 71.47139 | 34780 ft | 498 kts | 113° |
| 2026-05-04 01:25 | 32.64861 | 71.53557 | 34785 ft | 498 kts | 112° |
| 2026-05-04 01:25 | 32.62459 | 71.61307 | 34783 ft | 498 kts | 112° |
| 2026-05-04 01:26 | 32.60074 | 71.68987 | 34771 ft | 498 kts | 113° |
| 2026-05-04 01:26 | 32.57670 | 71.76709 | 34765 ft | 497 kts | 113° |
| 2026-05-04 01:27 | 32.55286 | 71.84346 | 34766 ft | 496 kts | 113° |
| 2026-05-04 01:27 | 32.52888 | 71.92009 | 34774 ft | 495 kts | 113° |
| 2026-05-04 01:28 | 32.50494 | 71.99643 | 34769 ft | 493 kts | 113° |
| 2026-05-04 01:28 | 32.47762 | 72.06954 | 34760 ft | 483 kts | 129° |
| 2026-05-04 01:28 | 32.45431 | 72.09787 | 34760 ft | 477 kts | 146° |
| 2026-05-04 01:29 | 32.42590 | 72.11793 | 34766 ft | 473 kts | 158° |
| 2026-05-04 01:29 | 32.39521 | 72.12998 | 34752 ft | 469 kts | 172° |
| 2026-05-04 01:29 | 32.36287 | 72.13495 | 34765 ft | 467 kts | 175° |
| 2026-05-04 01:30 | 32.29783 | 72.14360 | 34754 ft | 472 kts | 175° |
| 2026-05-04 01:30 | 32.23275 | 72.15284 | 34751 ft | 476 kts | 174° |
| 2026-05-04 01:31 | 32.16666 | 72.16279 | 34746 ft | 478 kts | 174° |
| 2026-05-04 01:31 | 32.10088 | 72.17288 | 34742 ft | 479 kts | 174° |
| 2026-05-04 01:32 | 32.03470 | 72.18301 | 34738 ft | 479 kts | 174° |
| 2026-05-04 01:32 | 31.96856 | 72.19309 | 34737 ft | 478 kts | 174° |
| 2026-05-04 01:33 | 31.90294 | 72.20307 | 34734 ft | 478 kts | 174° |
| 2026-05-04 01:33 | 31.83678 | 72.21311 | 34734 ft | 478 kts | 174° |
| 2026-05-04 01:34 | 31.77104 | 72.22306 | 34737 ft | 479 kts | 174° |
| 2026-05-04 01:34 | 31.70487 | 72.23308 | 34735 ft | 481 kts | 174° |
| 2026-05-04 01:35 | 31.63809 | 72.24317 | 34743 ft | 482 kts | 174° |
| 2026-05-04 01:35 | 31.57181 | 72.25318 | 34731 ft | 484 kts | 174° |
| 2026-05-04 01:36 | 31.50500 | 72.26325 | 34726 ft | 485 kts | 174° |
| 2026-05-04 01:36 | 31.43772 | 72.27338 | 34731 ft | 486 kts | 174° |
| 2026-05-04 01:37 | 31.37132 | 72.28484 | 34708 ft | 485 kts | 165° |
| 2026-05-04 01:37 | 31.34030 | 72.30093 | 34734 ft | 490 kts | 148° |
| 2026-05-04 01:37 | 31.31439 | 72.32708 | 34732 ft | 496 kts | 131° |
| 2026-05-04 01:37 | 31.29560 | 72.36058 | 34729 ft | 500 kts | 116° |
| 2026-05-04 01:38 | 31.28413 | 72.39909 | 34732 ft | 503 kts | 103° |
| 2026-05-04 01:38 | 31.28062 | 72.43986 | 34714 ft | 506 kts | 86° |
| 2026-05-04 01:38 | 31.28462 | 72.48060 | 34721 ft | 504 kts | 82° |
| 2026-05-04 01:39 | 31.29518 | 72.56172 | 34722 ft | 507 kts | 82° |
| 2026-05-04 01:39 | 31.30541 | 72.64306 | 34720 ft | 508 kts | 83° |
| 2026-05-04 01:40 | 31.31479 | 72.72522 | 34718 ft | 507 kts | 84° |
| 2026-05-04 01:40 | 31.32364 | 72.80645 | 34722 ft | 504 kts | 84° |
| 2026-05-04 01:41 | 31.33241 | 72.88756 | 34716 ft | 500 kts | 84° |
| 2026-05-04 01:41 | 31.34108 | 72.96776 | 34716 ft | 497 kts | 85° |
| 2026-05-04 01:42 | 31.34971 | 73.04782 | 34719 ft | 494 kts | 85° |
| 2026-05-04 01:42 | 31.35820 | 73.12696 | 34719 ft | 492 kts | 85° |
| 2026-05-04 01:43 | 31.36662 | 73.20599 | 34723 ft | 490 kts | 85° |
| 2026-05-04 01:43 | 31.37499 | 73.28510 | 34720 ft | 489 kts | 86° |
| 2026-05-04 01:44 | 31.38331 | 73.36415 | 34726 ft | 487 kts | 86° |
| 2026-05-04 01:44 | 31.39152 | 73.44255 | 34726 ft | 485 kts | 86° |
| 2026-05-04 01:45 | 31.39962 | 73.52047 | 34726 ft | 483 kts | 87° |
| 2026-05-04 01:45 | 31.41172 | 73.63778 | 34725 ft | 483 kts | 87° |
| 2026-05-04 01:46 | 31.41969 | 73.71563 | 34738 ft | 485 kts | 87° |
| 2026-05-04 01:46 | 31.42770 | 73.79437 | 34742 ft | 488 kts | 88° |
| 2026-05-04 01:47 | 31.43572 | 73.87359 | 34753 ft | 491 kts | 88° |
| 2026-05-04 01:47 | 31.44366 | 73.95262 | 34749 ft | 493 kts | 88° |
| 2026-05-04 01:48 | 31.44445 | 74.03267 | 34763 ft | 488 kts | 99° |
| 2026-05-04 01:48 | 31.43328 | 74.11033 | 34776 ft | 485 kts | 106° |
| 2026-05-04 01:49 | 31.41818 | 74.18720 | 34784 ft | 488 kts | 107° |
| 2026-05-04 01:49 | 31.40311 | 74.26515 | 34785 ft | 492 kts | 106° |
| 2026-05-04 01:50 | 31.38824 | 74.34374 | 34801 ft | 496 kts | 106° |
| 2026-05-04 01:50 | 31.37338 | 74.42237 | 34799 ft | 500 kts | 105° |
| 2026-05-04 01:51 | 31.35814 | 74.50212 | 34791 ft | 501 kts | 107° |
| 2026-05-04 01:51 | 31.34704 | 74.54062 | 34786 ft | 498 kts | 118° |
| 2026-05-04 01:51 | 31.33057 | 74.57558 | 34796 ft | 495 kts | 127° |
| 2026-05-04 01:52 | 31.28533 | 74.63541 | 34787 ft | 489 kts | 141° |
| 2026-05-04 01:52 | 31.23513 | 74.68903 | 34771 ft | 494 kts | 141° |
| 2026-05-04 01:53 | 31.18420 | 74.74388 | 34762 ft | 498 kts | 140° |
| 2026-05-04 01:53 | 31.13367 | 74.79914 | 34760 ft | 502 kts | 140° |
| 2026-05-04 01:54 | 31.08259 | 74.85520 | 34750 ft | 504 kts | 140° |
| 2026-05-04 01:54 | 31.03167 | 74.91096 | 34745 ft | 505 kts | 140° |
| 2026-05-04 01:55 | 30.98025 | 74.96713 | 34746 ft | 505 kts | 140° |
| 2026-05-04 01:55 | 30.92923 | 75.02277 | 34741 ft | 504 kts | 140° |
| 2026-05-04 01:56 | 30.87779 | 75.07880 | 34736 ft | 504 kts | 140° |
| 2026-05-04 01:56 | 30.82866 | 75.13636 | 34723 ft | 506 kts | 127° |
| 2026-05-04 01:57 | 30.81191 | 75.17260 | 34739 ft | 512 kts | 112° |
| 2026-05-04 01:57 | 30.80278 | 75.21218 | 34736 ft | 516 kts | 99° |
| 2026-05-04 01:57 | 30.80220 | 75.29559 | 34741 ft | 517 kts | 90° |
| 2026-05-04 01:58 | 30.80330 | 75.37976 | 34748 ft | 520 kts | 91° |
| 2026-05-04 01:58 | 30.80346 | 75.46353 | 34750 ft | 521 kts | 92° |
| 2026-05-04 01:59 | 30.80311 | 75.54800 | 34742 ft | 521 kts | 93° |
| 2026-05-04 01:59 | 30.80269 | 75.63197 | 34745 ft | 520 kts | 93° |
| 2026-05-04 02:00 | 30.80227 | 75.71617 | 34749 ft | 518 kts | 93° |
| 2026-05-04 02:00 | 30.80182 | 75.79942 | 34756 ft | 517 kts | 94° |
| 2026-05-04 02:01 | 30.80131 | 75.88303 | 34756 ft | 516 kts | 94° |
| 2026-05-04 02:01 | 30.80075 | 75.96667 | 34757 ft | 516 kts | 94° |
| 2026-05-04 02:02 | 30.79662 | 76.04906 | 34754 ft | 510 kts | 104° |
| 2026-05-04 02:02 | 30.77944 | 76.12860 | 34764 ft | 502 kts | 115° |
| 2026-05-04 02:03 | 30.75345 | 76.20306 | 34781 ft | 499 kts | 117° |
| 2026-05-04 02:03 | 30.72664 | 76.27776 | 34783 ft | 499 kts | 118° |
| 2026-05-04 02:04 | 30.70037 | 76.35198 | 34787 ft | 498 kts | 118° |
| 2026-05-04 02:04 | 30.67422 | 76.42651 | 34790 ft | 497 kts | 118° |
| 2026-05-04 02:05 | 30.64829 | 76.50042 | 34802 ft | 495 kts | 118° |
| 2026-05-04 02:05 | 30.62221 | 76.57450 | 34814 ft | 494 kts | 118° |
| 2026-05-04 02:06 | 30.59632 | 76.64785 | 34824 ft | 492 kts | 119° |
| 2026-05-04 02:06 | 30.57025 | 76.72152 | 34825 ft | 492 kts | 119° |
| 2026-05-04 02:07 | 30.54436 | 76.79451 | 34824 ft | 492 kts | 119° |
| 2026-05-04 02:07 | 30.51823 | 76.86806 | 34827 ft | 492 kts | 119° |
| 2026-05-04 02:08 | 30.49214 | 76.94135 | 34826 ft | 493 kts | 119° |
| 2026-05-04 02:08 | 30.46591 | 77.01490 | 34829 ft | 494 kts | 120° |
| 2026-05-04 02:09 | 30.43974 | 77.08812 | 34834 ft | 494 kts | 120° |
| 2026-05-04 02:09 | 30.41211 | 77.16076 | 34833 ft | 483 kts | 129° |
| 2026-05-04 02:10 | 30.39218 | 77.19079 | 34849 ft | 470 kts | 141° |
| 2026-05-04 02:10 | 30.36771 | 77.21525 | 34855 ft | 461 kts | 152° |
| 2026-05-04 02:10 | 30.34019 | 77.23345 | 34844 ft | 450 kts | 161° |
| 2026-05-04 02:10 | 30.31163 | 77.24847 | 34854 ft | 451 kts | 161° |
| 2026-05-04 02:11 | 30.25455 | 77.27851 | 34849 ft | 454 kts | 161° |
| 2026-05-04 02:11 | 30.19697 | 77.30931 | 34855 ft | 457 kts | 160° |
| 2026-05-04 02:12 | 30.13917 | 77.34056 | 34850 ft | 458 kts | 160° |
| 2026-05-04 02:12 | 30.08187 | 77.37164 | 34854 ft | 457 kts | 160° |
| 2026-05-04 02:13 | 30.02432 | 77.40281 | 34860 ft | 455 kts | 160° |
| 2026-05-04 02:13 | 29.96732 | 77.43361 | 34861 ft | 454 kts | 160° |
| 2026-05-04 02:14 | 29.91012 | 77.46447 | 34870 ft | 453 kts | 160° |
| 2026-05-04 02:14 | 29.85293 | 77.49528 | 34876 ft | 453 kts | 160° |
| 2026-05-04 02:15 | 29.79599 | 77.52592 | 34876 ft | 454 kts | 160° |
| 2026-05-04 02:15 | 29.73876 | 77.55667 | 34880 ft | 454 kts | 160° |
| 2026-05-04 02:16 | 29.68128 | 77.58753 | 34890 ft | 455 kts | 160° |
| 2026-05-04 02:16 | 29.62413 | 77.61817 | 34888 ft | 455 kts | 160° |
| 2026-05-04 02:17 | 29.56668 | 77.64895 | 34892 ft | 455 kts | 160° |
| 2026-05-04 02:17 | 29.50956 | 77.67950 | 34896 ft | 454 kts | 160° |
| 2026-05-04 02:18 | 29.45241 | 77.71003 | 34891 ft | 453 kts | 160° |
| 2026-05-04 02:18 | 29.39538 | 77.74045 | 34896 ft | 453 kts | 160° |
| 2026-05-04 02:19 | 29.33794 | 77.77104 | 34899 ft | 454 kts | 160° |
| 2026-05-04 02:19 | 29.28086 | 77.80141 | 34903 ft | 455 kts | 160° |
| 2026-05-04 02:20 | 29.22322 | 77.83204 | 34906 ft | 457 kts | 160° |
| 2026-05-04 02:20 | 29.16562 | 77.86261 | 34912 ft | 459 kts | 160° |
| 2026-05-04 02:21 | 29.10744 | 77.89346 | 34912 ft | 461 kts | 160° |
| 2026-05-04 02:21 | 29.04943 | 77.92417 | 34911 ft | 462 kts | 160° |
| 2026-05-04 02:22 | 28.99092 | 77.95512 | 34911 ft | 463 kts | 160° |
| 2026-05-04 02:22 | 28.93233 | 77.98607 | 34908 ft | 464 kts | 159° |
| 2026-05-04 02:23 | 28.87394 | 78.01687 | 34909 ft | 464 kts | 159° |
| 2026-05-04 02:23 | 28.81526 | 78.04779 | 34905 ft | 465 kts | 159° |
| 2026-05-04 02:24 | 28.75670 | 78.07861 | 34910 ft | 467 kts | 159° |
| 2026-05-04 02:24 | 28.69733 | 78.10980 | 34890 ft | 474 kts | 158° |
| 2026-05-04 02:25 | 28.63716 | 78.14138 | 34897 ft | 476 kts | 158° |
| 2026-05-04 02:25 | 28.57717 | 78.17284 | 34903 ft | 478 kts | 158° |
| 2026-05-04 02:26 | 28.51643 | 78.20464 | 34898 ft | 481 kts | 158° |
| 2026-05-04 02:26 | 28.45572 | 78.23639 | 34896 ft | 483 kts | 158° |
| 2026-05-04 02:27 | 28.39450 | 78.26837 | 34892 ft | 485 kts | 158° |
| 2026-05-04 02:27 | 28.33303 | 78.30043 | 34886 ft | 485 kts | 158° |
| 2026-05-04 02:28 | 28.27196 | 78.33226 | 34872 ft | 485 kts | 158° |
| 2026-05-04 02:28 | 28.21068 | 78.36415 | 34874 ft | 484 kts | 159° |
| 2026-05-04 02:29 | 28.14971 | 78.39560 | 34866 ft | 482 kts | 160° |
| 2026-05-04 02:29 | 28.08646 | 78.41860 | 34868 ft | 477 kts | 169° |
| 2026-05-04 02:30 | 28.02190 | 78.43640 | 34860 ft | 476 kts | 169° |
| 2026-05-04 02:30 | 27.95787 | 78.45414 | 34857 ft | 476 kts | 169° |
| 2026-05-04 02:31 | 27.89335 | 78.47231 | 34853 ft | 476 kts | 168° |
| 2026-05-04 02:31 | 27.82944 | 78.49043 | 34850 ft | 476 kts | 168° |
| 2026-05-04 02:32 | 27.76512 | 78.50866 | 34849 ft | 477 kts | 168° |
| 2026-05-04 02:32 | 27.70058 | 78.52691 | 34849 ft | 478 kts | 168° |
| 2026-05-04 02:33 | 27.63638 | 78.54505 | 34850 ft | 478 kts | 168° |
| 2026-05-04 02:33 | 27.57156 | 78.56333 | 34872 ft | 479 kts | 168° |
| 2026-05-04 02:34 | 27.51772 | 78.57850 | 34876 ft | 481 kts | 169° |
| 2026-05-04 02:34 | 27.44192 | 78.59982 | 34877 ft | 483 kts | 169° |
| 2026-05-04 02:35 | 27.37675 | 78.61813 | 34875 ft | 485 kts | 169° |
| 2026-05-04 02:35 | 27.32206 | 78.63347 | 34873 ft | 487 kts | 169° |
| 2026-05-04 02:36 | 27.24529 | 78.65499 | 34880 ft | 490 kts | 169° |
| 2026-05-04 02:36 | 27.19014 | 78.67044 | 34882 ft | 491 kts | 169° |
| 2026-05-04 02:37 | 27.12359 | 78.68906 | 34879 ft | 492 kts | 170° |
| 2026-05-04 02:37 | 27.05740 | 78.70756 | 34874 ft | 491 kts | 170° |
| 2026-05-04 02:38 | 26.99098 | 78.72609 | 34873 ft | 490 kts | 171° |
| 2026-05-04 02:38 | 26.92504 | 78.74447 | 34874 ft | 490 kts | 171° |
| 2026-05-04 02:39 | 26.85874 | 78.76292 | 34862 ft | 490 kts | 171° |
| 2026-05-04 02:39 | 26.79298 | 78.78120 | 34859 ft | 489 kts | 171° |
| 2026-05-04 02:40 | 26.72677 | 78.79959 | 34852 ft | 488 kts | 171° |
| 2026-05-04 02:40 | 26.66115 | 78.81779 | 34852 ft | 488 kts | 172° |
| 2026-05-04 02:41 | 26.59545 | 78.83599 | 34844 ft | 488 kts | 172° |
| 2026-05-04 02:41 | 26.52955 | 78.85423 | 34842 ft | 487 kts | 172° |
| 2026-05-04 02:42 | 26.46408 | 78.87232 | 34841 ft | 486 kts | 172° |
| 2026-05-04 02:42 | 26.39831 | 78.89048 | 34837 ft | 485 kts | 172° |
| 2026-05-04 02:43 | 26.33312 | 78.90846 | 34832 ft | 484 kts | 173° |
| 2026-05-04 02:43 | 26.26763 | 78.92650 | 34825 ft | 483 kts | 173° |
| 2026-05-04 02:44 | 26.20231 | 78.94446 | 34816 ft | 483 kts | 173° |
| 2026-05-04 02:44 | 26.13733 | 78.96232 | 34817 ft | 484 kts | 173° |
| 2026-05-04 02:45 | 26.07211 | 78.98022 | 34810 ft | 485 kts | 173° |
| 2026-05-04 02:45 | 26.00771 | 79.00555 | 34802 ft | 500 kts | 158° |
| 2026-05-04 02:46 | 25.95093 | 79.05167 | 34801 ft | 517 kts | 142° |
| 2026-05-04 02:46 | 25.90014 | 79.10894 | 34802 ft | 521 kts | 140° |
| 2026-05-04 02:47 | 25.85000 | 79.16655 | 34797 ft | 522 kts | 140° |
| 2026-05-04 02:47 | 25.79901 | 79.22411 | 34792 ft | 522 kts | 141° |
| 2026-05-04 02:48 | 25.74807 | 79.28081 | 34797 ft | 522 kts | 141° |
| 2026-05-04 02:48 | 25.69668 | 79.33775 | 34791 ft | 521 kts | 141° |
| 2026-05-04 02:49 | 25.64526 | 79.39469 | 34787 ft | 521 kts | 141° |
| 2026-05-04 02:49 | 25.59420 | 79.45121 | 34784 ft | 521 kts | 141° |
| 2026-05-04 02:50 | 25.54294 | 79.50791 | 34784 ft | 520 kts | 141° |
| 2026-05-04 02:50 | 25.49185 | 79.56434 | 34781 ft | 520 kts | 141° |
| 2026-05-04 02:51 | 25.44043 | 79.62105 | 34776 ft | 520 kts | 141° |
| 2026-05-04 02:51 | 25.38936 | 79.67732 | 34783 ft | 520 kts | 141° |
| 2026-05-04 02:52 | 25.33793 | 79.73389 | 34784 ft | 520 kts | 141° |
| 2026-05-04 02:52 | 25.28688 | 79.78999 | 34778 ft | 520 kts | 141° |
| 2026-05-04 02:53 | 25.23547 | 79.84642 | 34777 ft | 520 kts | 141° |
| 2026-05-04 02:53 | 25.18412 | 79.90270 | 34779 ft | 519 kts | 141° |
| 2026-05-04 02:54 | 25.13314 | 79.95851 | 34779 ft | 518 kts | 141° |
| 2026-05-04 02:54 | 25.08194 | 80.01450 | 34774 ft | 517 kts | 141° |
| 2026-05-04 02:55 | 25.00554 | 80.09789 | 34780 ft | 516 kts | 141° |
| 2026-05-04 02:56 | 24.95442 | 80.15361 | 34779 ft | 516 kts | 142° |
| 2026-05-04 02:56 | 24.90347 | 80.20907 | 34774 ft | 516 kts | 142° |
| 2026-05-04 02:57 | 24.85230 | 80.26471 | 34781 ft | 516 kts | 141° |
| 2026-05-04 02:57 | 24.80112 | 80.32029 | 34785 ft | 516 kts | 142° |
| 2026-05-04 02:58 | 24.75026 | 80.37544 | 34785 ft | 516 kts | 142° |
| 2026-05-04 02:58 | 24.69897 | 80.43100 | 34798 ft | 516 kts | 142° |
| 2026-05-04 02:59 | 24.64805 | 80.48609 | 34781 ft | 516 kts | 142° |
| 2026-05-04 02:59 | 24.59679 | 80.54149 | 34800 ft | 516 kts | 142° |
| 2026-05-04 03:00 | 24.54539 | 80.59696 | 34794 ft | 517 kts | 142° |
| 2026-05-04 03:00 | 24.49433 | 80.65201 | 34797 ft | 517 kts | 142° |
| 2026-05-04 03:01 | 24.44290 | 80.70739 | 34796 ft | 517 kts | 142° |
| 2026-05-04 03:01 | 24.39178 | 80.76237 | 34794 ft | 517 kts | 142° |
| 2026-05-04 03:02 | 24.34027 | 80.81770 | 34796 ft | 517 kts | 142° |
| 2026-05-04 03:02 | 24.28912 | 80.87258 | 34798 ft | 516 kts | 142° |
| 2026-05-04 03:03 | 24.23794 | 80.92742 | 34802 ft | 517 kts | 141° |
| 2026-05-04 03:03 | 24.18652 | 80.98246 | 34800 ft | 516 kts | 141° |
| 2026-05-04 03:04 | 24.13502 | 81.03752 | 34799 ft | 516 kts | 141° |
| 2026-05-04 03:04 | 24.08384 | 81.09216 | 34798 ft | 516 kts | 141° |
| 2026-05-04 03:05 | 24.03235 | 81.14708 | 34802 ft | 516 kts | 141° |
| 2026-05-04 03:05 | 23.98119 | 81.20158 | 34803 ft | 516 kts | 141° |
| 2026-05-04 03:06 | 23.92965 | 81.25641 | 34804 ft | 515 kts | 141° |
| 2026-05-04 03:06 | 23.87850 | 81.31078 | 34804 ft | 515 kts | 141° |
| 2026-05-04 03:07 | 23.82696 | 81.36549 | 34806 ft | 515 kts | 141° |
| 2026-05-04 03:07 | 23.77582 | 81.41971 | 34807 ft | 514 kts | 141° |
| 2026-05-04 03:08 | 23.72434 | 81.47424 | 34810 ft | 514 kts | 141° |
| 2026-05-04 03:08 | 23.67324 | 81.52829 | 34812 ft | 514 kts | 141° |
| 2026-05-04 03:09 | 23.62177 | 81.58267 | 34814 ft | 514 kts | 141° |
| 2026-05-04 03:09 | 23.57067 | 81.63660 | 34813 ft | 514 kts | 141° |
| 2026-05-04 03:10 | 23.51920 | 81.69087 | 34818 ft | 514 kts | 141° |
| 2026-05-04 03:10 | 23.46801 | 81.74476 | 34822 ft | 514 kts | 141° |
| 2026-05-04 03:11 | 23.41668 | 81.79875 | 34832 ft | 514 kts | 141° |
| 2026-05-04 03:11 | 23.36508 | 81.85296 | 34827 ft | 515 kts | 141° |
| 2026-05-04 03:12 | 23.31337 | 81.90723 | 34838 ft | 515 kts | 141° |
| 2026-05-04 03:12 | 23.26190 | 81.96119 | 34841 ft | 515 kts | 141° |
| 2026-05-04 03:13 | 23.21043 | 82.01508 | 34840 ft | 515 kts | 141° |
| 2026-05-04 03:13 | 23.15903 | 82.06885 | 34843 ft | 515 kts | 141° |
| 2026-05-04 03:14 | 23.10727 | 82.12295 | 34845 ft | 515 kts | 141° |
| 2026-05-04 03:14 | 23.05636 | 82.17805 | 34849 ft | 519 kts | 135° |
| 2026-05-04 03:15 | 23.01068 | 82.23853 | 34853 ft | 521 kts | 133° |
| 2026-05-04 03:15 | 22.96532 | 82.30012 | 34845 ft | 521 kts | 133° |
| 2026-05-04 03:16 | 22.92014 | 82.36098 | 34845 ft | 521 kts | 133° |
| 2026-05-04 03:16 | 22.87426 | 82.42219 | 34850 ft | 521 kts | 134° |
| 2026-05-04 03:17 | 22.82876 | 82.48264 | 34846 ft | 520 kts | 134° |
| 2026-05-04 03:17 | 22.78297 | 82.54344 | 34866 ft | 519 kts | 134° |
| 2026-05-04 03:18 | 22.73717 | 82.60419 | 34851 ft | 519 kts | 134° |
| 2026-05-04 03:18 | 22.69178 | 82.66437 | 34869 ft | 519 kts | 134° |
| 2026-05-04 03:19 | 22.64608 | 82.72488 | 34867 ft | 518 kts | 134° |
| 2026-05-04 03:19 | 22.60043 | 82.78525 | 34867 ft | 518 kts | 134° |
| 2026-05-04 03:20 | 22.55500 | 82.84526 | 34856 ft | 517 kts | 134° |
| 2026-05-04 03:20 | 22.50927 | 82.90560 | 34871 ft | 516 kts | 134° |
| 2026-05-04 03:21 | 22.46398 | 82.96529 | 34874 ft | 516 kts | 134° |
| 2026-05-04 03:21 | 22.41828 | 83.02543 | 34877 ft | 516 kts | 134° |
| 2026-05-04 03:22 | 22.37266 | 83.08542 | 34878 ft | 516 kts | 134° |
| 2026-05-04 03:22 | 22.32722 | 83.14510 | 34876 ft | 516 kts | 134° |
| 2026-05-04 03:23 | 22.28177 | 83.20473 | 34874 ft | 516 kts | 133° |
| 2026-05-04 03:23 | 22.23605 | 83.26464 | 34874 ft | 516 kts | 133° |
| 2026-05-04 03:24 | 22.19052 | 83.32423 | 34871 ft | 516 kts | 133° |
| 2026-05-04 03:24 | 22.14480 | 83.38402 | 34872 ft | 516 kts | 133° |
| 2026-05-04 03:25 | 22.09899 | 83.44384 | 34871 ft | 516 kts | 133° |
| 2026-05-04 03:25 | 22.05358 | 83.50308 | 34873 ft | 515 kts | 133° |
| 2026-05-04 03:26 | 22.00780 | 83.56273 | 34874 ft | 515 kts | 133° |
| 2026-05-04 03:26 | 21.96233 | 83.62193 | 34870 ft | 515 kts | 133° |
| 2026-05-04 03:27 | 21.91677 | 83.68116 | 34870 ft | 515 kts | 133° |
| 2026-05-04 03:27 | 21.87092 | 83.74071 | 34873 ft | 515 kts | 133° |
| 2026-05-04 03:28 | 21.82542 | 83.79974 | 34877 ft | 515 kts | 133° |
| 2026-05-04 03:28 | 21.77968 | 83.85901 | 34880 ft | 515 kts | 133° |
| 2026-05-04 03:29 | 21.73383 | 83.91835 | 34878 ft | 515 kts | 133° |
| 2026-05-04 03:29 | 21.68814 | 83.97743 | 34880 ft | 515 kts | 133° |
| 2026-05-04 03:30 | 21.64223 | 84.03673 | 34879 ft | 515 kts | 133° |
| 2026-05-04 03:30 | 21.59659 | 84.09562 | 34872 ft | 515 kts | 133° |
| 2026-05-04 03:31 | 21.55058 | 84.15493 | 34874 ft | 515 kts | 133° |
| 2026-05-04 03:31 | 21.50483 | 84.21382 | 34878 ft | 515 kts | 133° |
| 2026-05-04 03:32 | 21.45884 | 84.27296 | 34881 ft | 515 kts | 133° |
| 2026-05-04 03:32 | 21.41304 | 84.33181 | 34884 ft | 515 kts | 133° |
| 2026-05-04 03:33 | 21.36703 | 84.39084 | 34881 ft | 515 kts | 133° |
| 2026-05-04 03:33 | 21.32103 | 84.44981 | 34882 ft | 515 kts | 133° |
| 2026-05-04 03:34 | 21.27526 | 84.50842 | 34876 ft | 515 kts | 133° |
| 2026-05-04 03:34 | 21.22921 | 84.56733 | 34879 ft | 514 kts | 133° |
| 2026-05-04 03:35 | 21.18346 | 84.62579 | 34875 ft | 514 kts | 133° |
| 2026-05-04 03:35 | 21.13737 | 84.68463 | 34872 ft | 514 kts | 133° |
| 2026-05-04 03:36 | 21.09125 | 84.74342 | 34869 ft | 514 kts | 133° |
| 2026-05-04 03:36 | 21.04547 | 84.80173 | 34871 ft | 514 kts | 133° |
| 2026-05-04 03:37 | 20.99957 | 84.86014 | 34880 ft | 514 kts | 133° |
| 2026-05-04 03:37 | 20.95352 | 84.91868 | 34878 ft | 514 kts | 133° |
| 2026-05-04 03:38 | 20.90742 | 84.97720 | 34881 ft | 514 kts | 133° |
| 2026-05-04 03:38 | 20.86155 | 85.03539 | 34861 ft | 514 kts | 133° |
| 2026-05-04 03:39 | 20.81539 | 85.09388 | 34856 ft | 514 kts | 133° |
| 2026-05-04 03:39 | 20.76951 | 85.15195 | 34870 ft | 513 kts | 133° |
| 2026-05-04 03:40 | 20.72337 | 85.21030 | 34867 ft | 513 kts | 133° |
| 2026-05-04 03:40 | 20.67740 | 85.26836 | 34869 ft | 513 kts | 133° |
| 2026-05-04 03:41 | 20.63123 | 85.32663 | 34867 ft | 513 kts | 133° |
| 2026-05-04 03:41 | 20.58505 | 85.38484 | 34867 ft | 513 kts | 133° |
| 2026-05-04 03:42 | 20.53910 | 85.44271 | 34867 ft | 513 kts | 133° |
| 2026-05-04 03:42 | 20.49314 | 85.50053 | 34861 ft | 513 kts | 133° |
| 2026-05-04 03:43 | 20.44690 | 85.55864 | 34858 ft | 513 kts | 133° |